^^
Station Historical Data
Daily Summary for January 22, 2018 Units:  Both    English   Metric
« Previous Day
Next Day »
Daily Weekly Monthly Yearly Custom
  High: Low: Average:
Temperature: TemperatureC °F /  -17.8 °C -10.8 °F /  -23.8 °C -6.8 °F /  -21.6 °C
Dew Point: DewpointC °F /  -17.8 °C -12.1 °F /  -24.5 °C -7.9 °F /  -22.2 °C
Humidity: Humidity% 90% 92%
Wind Speed: WindSpeedKMHmph /  0km/h - 0.1mph /  0.2km/h
Wind Gust: WindSpeedGustKMHmph /  0km/h - -
Wind- - ENE
Pressure: PressurehPa in /  0 hPa 1009.4 in /  34178.3 hPa -
Precipitation: 0.5 in /  12.7 mm    
Historical Graphs
 
 
Tabular Data for January 22, 2018
Time Temperature Dew Point Pressure Wind Wind Speed Wind Gust Humidity Rainfall Rate (Hourly) solar Conditions
TemperatureC °F /  -17.8 °C DewpointC °F /  -17.8 °C PressurehPain /  0hPa Calm     Humidity% HourlyPrecipMMin /  0mm SoftwareType W/m2 Conditions
00:04 -10.2 °F /  -23.4 °C -11.4 °F /  -24.1 °C 1013.4in /  34313.7hPa Calm     91% 0.0in /  0mm WeatherDisplay:10.37 W/m2 FEW
00:14 -10.4 °F /  -23.6 °C -11.8 °F /  -24.3 °C 1013.1in /  34303.6hPa Calm     90% 0.0in /  0mm WeatherDisplay:10.37 W/m2 FEW
00:19 -10.5 °F /  -23.6 °C -11.8 °F /  -24.3 °C 1013.1in /  34303.6hPa Calm     90% 0.0in /  0mm WeatherDisplay:10.37 W/m2 FEW
00:24 -10.6 °F /  -23.7 °C -11.9 °F /  -24.4 °C 1013.1in /  34303.6hPa Calm     90% 0.0in /  0mm WeatherDisplay:10.37 W/m2 FEW
00:34 -10.8 °F /  -23.8 °C -12.1 °F /  -24.5 °C 1013.4in /  34313.7hPa Calm     90% 0.0in /  0mm WeatherDisplay:10.37 W/m2 FEW
00:44 -10.7 °F /  -23.7 °C -11.8 °F /  -24.3 °C 1013.4in /  34313.7hPa Calm     91% 0.0in /  0mm WeatherDisplay:10.37 W/m2 FEW
00:49 -10.6 °F /  -23.7 °C -11.7 °F /  -24.3 °C 1013.1in /  34303.6hPa Calm     91% 0.0in /  0mm WeatherDisplay:10.37 W/m2 FEW
00:54 -10.5 °F /  -23.6 °C -11.7 °F /  -24.3 °C 1013.4in /  34313.7hPa Calm     91% 0.0in /  0mm WeatherDisplay:10.37 W/m2 FEW
00:59 -10.4 °F /  -23.6 °C -11.6 °F /  -24.2 °C 1013.4in /  34313.7hPa Calm     91% 0.0in /  0mm WeatherDisplay:10.37 W/m2 FEW
01:04 -10.3 °F /  -23.5 °C -11.4 °F /  -24.1 °C 1013.1in /  34303.6hPa Calm     91% 0.0in /  0mm WeatherDisplay:10.37 W/m2 FEW
01:09 -10.2 °F /  -23.4 °C -11.3 °F /  -24.1 °C 1013.1in /  34303.6hPa Calm     91% 0.0in /  0mm WeatherDisplay:10.37 W/m2 FEW
01:14 -10.1 °F /  -23.4 °C -11.2 °F /  -24 °C 1013.1in /  34303.6hPa Calm     91% 0.0in /  0mm WeatherDisplay:10.37 W/m2 FEW
01:19 -9.9 °F /  -23.3 °C -11.0 °F /  -23.9 °C 1013.1in /  34303.6hPa Calm     92% 0.0in /  0mm WeatherDisplay:10.37 W/m2 FEW
01:29 -9.8 °F /  -23.2 °C -10.8 °F /  -23.8 °C 1013.1in /  34303.6hPa Calm     92% 0.0in /  0mm WeatherDisplay:10.37 W/m2 FEW
01:34 -9.7 °F /  -23.2 °C -10.8 °F /  -23.8 °C 1013.1in /  34303.6hPa Calm     92% 0.0in /  0mm WeatherDisplay:10.37 W/m2 FEW
01:39 -9.7 °F /  -23.2 °C -10.8 °F /  -23.8 °C 1013.1in /  34303.6hPa Calm     92% 0.0in /  0mm WeatherDisplay:10.37 W/m2 FEW
01:44 -9.8 °F /  -23.2 °C -10.9 °F /  -23.8 °C 1012.8in /  34293.4hPa Calm     91% 0.0in /  0mm WeatherDisplay:10.37 W/m2 FEW
01:49 -9.8 °F /  -23.2 °C -11.0 °F /  -23.9 °C 1012.8in /  34293.4hPa Calm     91% 0.0in /  0mm WeatherDisplay:10.37 W/m2 FEW
01:54 -9.9 °F /  -23.3 °C -11.1 °F /  -23.9 °C 1012.8in /  34293.4hPa Calm     91% 0.0in /  0mm WeatherDisplay:10.37 W/m2 FEW
01:59 -10.0 °F /  -23.3 °C -11.2 °F /  -24 °C 1012.8in /  34293.4hPa Calm     91% 0.0in /  0mm WeatherDisplay:10.37 W/m2 FEW
02:04 -10.1 °F /  -23.4 °C -11.2 °F /  -24 °C 1012.8in /  34293.4hPa Calm     91% 0.0in /  0mm WeatherDisplay:10.37 W/m2 FEW
02:09 -10.1 °F /  -23.4 °C -11.2 °F /  -24 °C 1012.8in /  34293.4hPa Calm     91% 0.0in /  0mm WeatherDisplay:10.37 W/m2 FEW
02:14 -10.2 °F /  -23.4 °C -11.3 °F /  -24.1 °C 1012.8in /  34293.4hPa Calm     91% 0.0in /  0mm WeatherDisplay:10.37 W/m2 FEW
02:19 -10.2 °F /  -23.4 °C -11.3 °F /  -24.1 °C 1012.4in /  34279.9hPa Calm     91% 0.0in /  0mm WeatherDisplay:10.37 W/m2 FEW
02:24 -10.2 °F /  -23.4 °C -11.3 °F /  -24.1 °C 1012.4in /  34279.9hPa Calm     91% 0.0in /  0mm WeatherDisplay:10.37 W/m2 FEW
02:29 -10.2 °F /  -23.4 °C -11.3 °F /  -24.1 °C 1012.4in /  34279.9hPa Calm     91% 0.0in /  0mm WeatherDisplay:10.37 W/m2 FEW
02:34 -10.1 °F /  -23.4 °C -11.3 °F /  -24.1 °C 1012.4in /  34279.9hPa Calm     91% 0.0in /  0mm WeatherDisplay:10.37 W/m2 FEW
02:39 -10.2 °F /  -23.4 °C -11.3 °F /  -24.1 °C 1012.4in /  34279.9hPa Calm     91% 0.0in /  0mm WeatherDisplay:10.37 W/m2 FEW
02:44 -10.2 °F /  -23.4 °C -11.3 °F /  -24.1 °C 1012.1in /  34269.7hPa Calm     91% 0.0in /  0mm WeatherDisplay:10.37 W/m2 FEW
02:49 -10.2 °F /  -23.4 °C -11.4 °F /  -24.1 °C 1012.1in /  34269.7hPa Calm     91% 0.0in /  0mm WeatherDisplay:10.37 W/m2 FEW
02:54 -10.3 °F /  -23.5 °C -11.4 °F /  -24.1 °C 1012.1in /  34269.7hPa Calm     91% 0.0in /  0mm WeatherDisplay:10.37 W/m2 FEW
02:59 -10.3 °F /  -23.5 °C -11.4 °F /  -24.1 °C 1012.1in /  34269.7hPa Calm     91% 0.0in /  0mm WeatherDisplay:10.37 W/m2 FEW
03:04 -10.2 °F /  -23.4 °C -11.4 °F /  -24.1 °C 1012.1in /  34269.7hPa Calm     91% 0.0in /  0mm WeatherDisplay:10.37 W/m2 FEW
03:09 -10.2 °F /  -23.4 °C -11.4 °F /  -24.1 °C 1012.1in /  34269.7hPa Calm     91% 0.0in /  0mm WeatherDisplay:10.37 W/m2 FEW
03:14 -10.1 °F /  -23.4 °C -11.3 °F /  -24.1 °C 1012.1in /  34269.7hPa Calm     91% 0.0in /  0mm WeatherDisplay:10.37 W/m2 FEW
03:19 -10.0 °F /  -23.3 °C -11.2 °F /  -24 °C 1012.1in /  34269.7hPa Calm     91% 0.0in /  0mm WeatherDisplay:10.37 W/m2 FEW
03:24 -9.9 °F /  -23.3 °C -11.1 °F /  -23.9 °C 1012.1in /  34269.7hPa Calm     91% 0.0in /  0mm WeatherDisplay:10.37 W/m2 FEW
03:29 -9.8 °F /  -23.2 °C -10.9 °F /  -23.8 °C 1011.7in /  34256.2hPa Calm     92% 0.0in /  0mm WeatherDisplay:10.37 W/m2 FEW
03:35 -9.7 °F /  -23.2 °C -10.8 °F /  -23.8 °C 1011.7in /  34256.2hPa Calm     92% 0.0in /  0mm WeatherDisplay:10.37 W/m2 FEW
03:40 -9.7 °F /  -23.2 °C -10.7 °F /  -23.7 °C 1011.7in /  34256.2hPa Calm     92% 0.0in /  0mm WeatherDisplay:10.37 W/m2 FEW
03:45 -9.6 °F /  -23.1 °C -10.6 °F /  -23.7 °C 1011.7in /  34256.2hPa Calm     92% 0.0in /  0mm WeatherDisplay:10.37 W/m2 FEW
03:50 -9.4 °F /  -23 °C -10.4 °F /  -23.6 °C 1011.7in /  34256.2hPa Calm     92% 0.0in /  0mm WeatherDisplay:10.37 W/m2 FEW
03:55 -9.3 °F /  -22.9 °C -10.3 °F /  -23.5 °C 1011.7in /  34256.2hPa Calm     92% 0.0in /  0mm WeatherDisplay:10.37 W/m2 FEW
04:00 -9.2 °F /  -22.9 °C -10.2 °F /  -23.4 °C 1011.4in /  34246hPa Calm     92% 0.0in /  0mm WeatherDisplay:10.37 W/m2 FEW
04:05 -9.1 °F /  -22.8 °C -10.1 °F /  -23.4 °C 1011.4in /  34246hPa Calm     92% 0.0in /  0mm WeatherDisplay:10.37 W/m2 FEW
04:10 -8.9 °F /  -22.7 °C -10.0 °F /  -23.3 °C 1011.4in /  34246hPa Calm     92% 0.0in /  0mm WeatherDisplay:10.37 W/m2 FEW
04:15 -8.8 °F /  -22.7 °C -9.9 °F /  -23.3 °C 1011.4in /  34246hPa Calm     92% 0.0in /  0mm WeatherDisplay:10.37 W/m2 FEW
04:20 -8.7 °F /  -22.6 °C -9.8 °F /  -23.2 °C 1011.1in /  34235.8hPa Calm     92% 0.0in /  0mm WeatherDisplay:10.37 W/m2 FEW
04:25 -8.7 °F /  -22.6 °C -9.7 °F /  -23.2 °C 1011.1in /  34235.8hPa Calm     92% 0.0in /  0mm WeatherDisplay:10.37 W/m2 FEW
04:30 -8.6 °F /  -22.6 °C -9.7 °F /  -23.2 °C 1011.1in /  34235.8hPa Calm     92% 0.0in /  0mm WeatherDisplay:10.37 W/m2 FEW
04:35 -8.5 °F /  -22.5 °C -9.6 °F /  -23.1 °C 1011.1in /  34235.8hPa Calm     92% 0.0in /  0mm WeatherDisplay:10.37 W/m2 FEW
04:40 -8.4 °F /  -22.4 °C -9.3 °F /  -22.9 °C 1010.7in /  34222.3hPa Calm     93% 0.0in /  0mm WeatherDisplay:10.37 W/m2 FEW
04:45 -8.3 °F /  -22.4 °C -9.3 °F /  -22.9 °C 1010.7in /  34222.3hPa Calm     92% 0.0in /  0mm WeatherDisplay:10.37 W/m2 FEW
04:50 -8.2 °F /  -22.3 °C -9.1 °F /  -22.8 °C 1010.7in /  34222.3hPa Calm     93% 0.0in /  0mm WeatherDisplay:10.37 W/m2 FEW
04:55 -8.0 °F /  -22.2 °C -8.9 °F /  -22.7 °C 1010.7in /  34222.3hPa Calm     93% 0.0in /  0mm WeatherDisplay:10.37 W/m2 FEW
05:00 -7.8 °F /  -22.1 °C -8.8 °F /  -22.7 °C 1010.7in /  34222.3hPa Calm     93% 0.0in /  0mm WeatherDisplay:10.37 W/m2 FEW
05:05 -7.7 °F /  -22.1 °C -8.6 °F /  -22.6 °C 1010.4in /  34212.1hPa Calm     93% 0.3in /  7.62mm WeatherDisplay:10.37 W/m2 RA
05:10 -7.5 °F /  -21.9 °C -8.4 °F /  -22.4 °C 1010.4in /  34212.1hPa Calm     93% 0.3in /  7.62mm WeatherDisplay:10.37 W/m2 RA
05:15 -7.4 °F /  -21.9 °C -8.3 °F /  -22.4 °C 1010.4in /  34212.1hPa Calm     93% 0.3in /  7.62mm WeatherDisplay:10.37 W/m2 FEW
05:20 -7.3 °F /  -21.8 °C -8.2 °F /  -22.3 °C 1010.4in /  34212.1hPa Calm     93% 0.3in /  7.62mm WeatherDisplay:10.37 W/m2 FEW
05:25 -7.2 °F /  -21.8 °C -8.2 °F /  -22.3 °C 1010.4in /  34212.1hPa Calm     93% 0.3in /  7.62mm WeatherDisplay:10.37 W/m2 FEW
05:35 -7.1 °F /  -21.7 °C -8.0 °F /  -22.2 °C 1010.4in /  34212.1hPa Calm     93% 0.3in /  7.62mm WeatherDisplay:10.37 W/m2 FEW
05:45 -6.8 °F /  -21.6 °C -7.8 °F /  -22.1 °C 1010.4in /  34212.1hPa Calm     93% 0.3in /  7.62mm WeatherDisplay:10.37 W/m2 FEW
05:50 -6.8 °F /  -21.6 °C -7.7 °F /  -22.1 °C 1010.4in /  34212.1hPa Calm     93% 0.3in /  7.62mm WeatherDisplay:10.37 W/m2 FEW
06:00 -6.7 °F /  -21.5 °C -7.7 °F /  -22.1 °C 1010.0in /  34198.6hPa Calm     93% 0.3in /  7.62mm WeatherDisplay:10.37 W/m2 FEW
06:05 -6.7 °F /  -21.5 °C -7.7 °F /  -22.1 °C 1010.0in /  34198.6hPa Calm     93% 0.0in /  0mm WeatherDisplay:10.37 W/m2 FEW
06:10 -6.7 °F /  -21.5 °C -7.7 °F /  -22.1 °C 1010.0in /  34198.6hPa Calm     93% 0.0in /  0mm WeatherDisplay:10.37 W/m2 FEW
06:15 -6.7 °F /  -21.5 °C -7.6 °F /  -22 °C 1010.0in /  34198.6hPa Calm     93% 0.0in /  0mm WeatherDisplay:10.37 W/m2 FEW
06:20 -6.7 °F /  -21.5 °C -7.6 °F /  -22 °C 1010.0in /  34198.6hPa Calm     93% 0.0in /  0mm WeatherDisplay:10.37 W/m2 FEW
06:25 -6.7 °F /  -21.5 °C -7.6 °F /  -22 °C 1010.0in /  34198.6hPa Calm     93% 0.0in /  0mm WeatherDisplay:10.37 W/m2 FEW
06:30 -6.6 °F /  -21.4 °C -7.6 °F /  -22 °C 1010.0in /  34198.6hPa Calm     93% 0.0in /  0mm WeatherDisplay:10.37 W/m2 FEW
06:40 -6.6 °F /  -21.4 °C -7.5 °F /  -21.9 °C 1010.0in /  34198.6hPa Calm     93% 0.0in /  0mm WeatherDisplay:10.37 W/m2 FEW
06:45 -6.5 °F /  -21.4 °C -7.4 °F /  -21.9 °C 1009.7in /  34188.4hPa Calm     93% 0.0in /  0mm WeatherDisplay:10.37 W/m2 FEW
06:50 -6.4 °F /  -21.3 °C -7.4 °F /  -21.9 °C 1009.7in /  34188.4hPa Calm     93% 0.0in /  0mm WeatherDisplay:10.37 W/m2 FEW
07:00 -6.4 °F /  -21.3 °C -7.3 °F /  -21.8 °C 1009.7in /  34188.4hPa Calm     93% 0.0in /  0mm WeatherDisplay:10.37 W/m2 FEW
07:10 -6.3 °F /  -21.3 °C -7.3 °F /  -21.8 °C 1009.7in /  34188.4hPa Calm     93% 0.0in /  0mm WeatherDisplay:10.37 W/m2 FEW
07:15 -6.3 °F /  -21.3 °C -7.2 °F /  -21.8 °C 1009.7in /  34188.4hPa Calm     93% 0.0in /  0mm WeatherDisplay:10.37 W/m2 FEW
07:20 -6.2 °F /  -21.2 °C -7.2 °F /  -21.8 °C 1009.4in /  34178.3hPa Calm     93% 0.0in /  0mm WeatherDisplay:10.37 W/m2 FEW
07:25 -6.2 °F /  -21.2 °C -7.2 °F /  -21.8 °C 1009.4in /  34178.3hPa Calm     93% 0.0in /  0mm WeatherDisplay:10.37 W/m2 FEW
07:30 -6.2 °F /  -21.2 °C -7.1 °F /  -21.7 °C 1009.4in /  34178.3hPa Calm     93% 0.0in /  0mm WeatherDisplay:10.37 W/m2 FEW
07:40 -6.1 °F /  -21.2 °C -7.1 °F /  -21.7 °C 1009.4in /  34178.3hPa Calm     93% 0.0in /  0mm WeatherDisplay:10.37 W/m2 FEW
07:45 -6.1 °F /  -21.2 °C -7.1 °F /  -21.7 °C 1009.4in /  34178.3hPa Calm     93% 0.0in /  0mm WeatherDisplay:10.37 W/m2 FEW
07:50 -6.1 °F /  -21.2 °C -7.1 °F /  -21.7 °C 1009.4in /  34178.3hPa Calm     93% 0.0in /  0mm WeatherDisplay:10.37 W/m2 FEW
07:55 -6.1 °F /  -21.2 °C -7.1 °F /  -21.7 °C 1009.4in /  34178.3hPa Calm     93% 0.0in /  0mm WeatherDisplay:10.37 W/m2 FEW
08:00 -6.2 °F /  -21.2 °C -7.1 °F /  -21.7 °C 1009.4in /  34178.3hPa Calm     93% 0.0in /  0mm WeatherDisplay:10.37 W/m2 FEW
08:05 -6.2 °F /  -21.2 °C -7.2 °F /  -21.8 °C 1009.4in /  34178.3hPa Calm     93% 0.0in /  0mm WeatherDisplay:10.37 W/m2 FEW
08:10 -6.2 °F /  -21.2 °C -7.2 °F /  -21.8 °C 1009.4in /  34178.3hPa Calm     93% 0.0in /  0mm WeatherDisplay:10.37 W/m2 FEW
08:15 -6.2 °F /  -21.2 °C -7.2 °F /  -21.8 °C 1009.4in /  34178.3hPa Calm     93% 0.0in /  0mm WeatherDisplay:10.37 W/m2 FEW
08:20 -6.3 °F /  -21.3 °C -7.2 °F /  -21.8 °C 1009.4in /  34178.3hPa Calm     93% 0.0in /  0mm WeatherDisplay:10.37 W/m2 FEW
08:25 -6.3 °F /  -21.3 °C -7.2 °F /  -21.8 °C 1009.4in /  34178.3hPa Calm     93% 0.0in /  0mm WeatherDisplay:10.37 W/m2 FEW
08:30 -6.3 °F /  -21.3 °C -7.2 °F /  -21.8 °C 1009.4in /  34178.3hPa Calm     93% 0.0in /  0mm WeatherDisplay:10.37 W/m2 FEW
08:35 -6.2 °F /  -21.2 °C -7.2 °F /  -21.8 °C 1009.4in /  34178.3hPa Calm     93% 0.0in /  0mm WeatherDisplay:10.37 W/m2 FEW
08:40 -6.2 °F /  -21.2 °C -7.1 °F /  -21.7 °C 1009.4in /  34178.3hPa Calm     93% 0.0in /  0mm WeatherDisplay:10.37 W/m2 FEW
08:45 -6.2 °F /  -21.2 °C -7.1 °F /  -21.7 °C 1009.4in /  34178.3hPa Calm     93% 0.0in /  0mm WeatherDisplay:10.37 W/m2 FEW
08:50 -6.1 °F /  -21.2 °C -7.0 °F /  -21.7 °C 1009.4in /  34178.3hPa Calm     93% 0.0in /  0mm WeatherDisplay:10.37 W/m2 FEW
08:55 -6.1 °F /  -21.2 °C -7.0 °F /  -21.7 °C 1009.4in /  34178.3hPa Calm     93% 0.0in /  0mm WeatherDisplay:10.37 W/m2 FEW
09:05 -6.0 °F /  -21.1 °C -6.9 °F /  -21.6 °C 1009.4in /  34178.3hPa Calm     93% 0.0in /  0mm WeatherDisplay:10.37 W/m2 FEW
09:15 -5.8 °F /  -21 °C -6.8 °F /  -21.6 °C 1009.4in /  34178.3hPa Calm     93% 0.0in /  0mm WeatherDisplay:10.37 W/m2 FEW
09:30 -5.7 °F /  -20.9 °C -6.6 °F /  -21.4 °C 1009.4in /  34178.3hPa Calm     93% 0.0in /  0mm WeatherDisplay:10.37 W/m2 FEW
09:35 -5.6 °F /  -20.9 °C -6.5 °F /  -21.4 °C 1009.4in /  34178.3hPa Calm     93% 0.0in /  0mm WeatherDisplay:10.37 W/m2 FEW
09:40 -5.5 °F /  -20.8 °C -6.4 °F /  -21.3 °C 1009.4in /  34178.3hPa Calm     93% 0.0in /  0mm WeatherDisplay:10.37 W/m2 FEW
09:45 -5.4 °F /  -20.8 °C -6.3 °F /  -21.3 °C 1009.4in /  34178.3hPa Calm     94% 0.0in /  0mm WeatherDisplay:10.37 W/m2 FEW
09:50 -5.3 °F /  -20.7 °C -6.2 °F /  -21.2 °C 1009.4in /  34178.3hPa Calm     94% 0.0in /  0mm WeatherDisplay:10.37 W/m2 FEW
09:55 -5.2 °F /  -20.7 °C -6.2 °F /  -21.2 °C 1009.4in /  34178.3hPa Calm     93% 0.0in /  0mm WeatherDisplay:10.37 W/m2 FEW
10:00 -5.2 °F /  -20.7 °C -6.1 °F /  -21.2 °C 1009.4in /  34178.3hPa Calm     93% 0.0in /  0mm WeatherDisplay:10.37 W/m2 FEW
10:15 -4.8 °F /  -20.4 °C -5.8 °F /  -21 °C 1009.4in /  34178.3hPa Calm     93% 0.0in /  0mm WeatherDisplay:10.37 W/m2 FEW
10:20 -4.7 °F /  -20.4 °C -5.5 °F /  -20.8 °C 1009.4in /  34178.3hPa Calm     94% 0.0in /  0mm WeatherDisplay:10.37 W/m2 FEW
10:25 -4.6 °F /  -20.3 °C -5.6 °F /  -20.9 °C 1009.4in /  34178.3hPa Calm     93% 0.0in /  0mm WeatherDisplay:10.37 W/m2 FEW
10:30 -4.5 °F /  -20.3 °C -5.4 °F /  -20.8 °C 1009.4in /  34178.3hPa Calm     93% 0.0in /  0mm WeatherDisplay:10.37 W/m2 FEW
10:35 -4.4 °F /  -20.2 °C -5.3 °F /  -20.7 °C 1009.4in /  34178.3hPa Calm     94% 0.0in /  0mm WeatherDisplay:10.37 W/m2 FEW
10:40 -4.3 °F /  -20.2 °C -5.2 °F /  -20.7 °C 1009.4in /  34178.3hPa Calm     94% 0.0in /  0mm WeatherDisplay:10.37 W/m2 FEW
10:45 -4.3 °F /  -20.2 °C -5.2 °F /  -20.7 °C 1009.4in /  34178.3hPa Calm     93% 0.0in /  0mm WeatherDisplay:10.37 W/m2 FEW
11:05 -3.7 °F /  -19.8 °C -4.6 °F /  -20.3 °C 1009.7in /  34188.4hPa Calm     94% 0.0in /  0mm WeatherDisplay:10.37 W/m2 FEW
11:10 -3.6 °F /  -19.8 °C -4.6 °F /  -20.3 °C 1009.7in /  34188.4hPa Calm     93% 0.0in /  0mm WeatherDisplay:10.37 W/m2 FEW
11:15 -3.4 °F /  -19.7 °C -4.3 °F /  -20.2 °C 1009.7in /  34188.4hPa Calm     94% 0.0in /  0mm WeatherDisplay:10.37 W/m2 FEW
11:20 -3.3 °F /  -19.6 °C -4.2 °F /  -20.1 °C 1009.7in /  34188.4hPa Calm     94% 0.0in /  0mm WeatherDisplay:10.37 W/m2 FEW
11:25 -3.3 °F /  -19.6 °C -4.2 °F /  -20.1 °C 1009.7in /  34188.4hPa Calm     93% 0.0in /  0mm WeatherDisplay:10.37 W/m2 FEW
11:35 -3.2 °F /  -19.6 °C -4.0 °F /  -20 °C 1009.7in /  34188.4hPa Calm     94% 0.0in /  0mm WeatherDisplay:10.37 W/m2 FEW
11:40 -3.1 °F /  -19.5 °C -3.9 °F /  -19.9 °C 1009.7in /  34188.4hPa Calm     94% 0.0in /  0mm WeatherDisplay:10.37 W/m2 FEW
11:45 -3.1 °F /  -19.5 °C -4.0 °F /  -20 °C 1009.7in /  34188.4hPa Calm     93% 0.0in /  0mm WeatherDisplay:10.37 W/m2 FEW
11:50 -2.9 °F /  -19.4 °C -3.9 °F /  -19.9 °C 1009.7in /  34188.4hPa Calm     93% 0.0in /  0mm WeatherDisplay:10.37 W/m2 FEW
11:55 -2.9 °F /  -19.4 °C -3.7 °F /  -19.8 °C 1009.7in /  34188.4hPa Calm     94% 0.0in /  0mm WeatherDisplay:10.37 W/m2 FEW
12:00 -2.8 °F /  -19.3 °C -3.7 °F /  -19.8 °C 1009.7in /  34188.4hPa Calm     94% 0.0in /  0mm WeatherDisplay:10.37 W/m2 FEW
12:05 -2.8 °F /  -19.3 °C -3.6 °F /  -19.8 °C 1009.7in /  34188.4hPa Calm     94% 0.0in /  0mm WeatherDisplay:10.37 W/m2 FEW
12:10 -2.8 °F /  -19.3 °C -3.8 °F /  -19.9 °C 1009.7in /  34188.4hPa NNW 0.2mph /  0.3km/h 1.9mph /  3.1km/h 93% 0.0in /  0mm WeatherDisplay:10.37 W/m2 FEW
12:15 -2.7 °F /  -19.3 °C -3.7 °F /  -19.8 °C 1009.7in /  34188.4hPa Calm     93% 0.0in /  0mm WeatherDisplay:10.37 W/m2 FEW
12:20 -2.7 °F /  -19.3 °C -3.7 °F /  -19.8 °C 1009.4in /  34178.3hPa Calm     93% 0.0in /  0mm WeatherDisplay:10.37 W/m2 FEW
12:25 -2.7 °F /  -19.3 °C -3.7 °F /  -19.8 °C 1009.4in /  34178.3hPa Calm     93% 0.0in /  0mm WeatherDisplay:10.37 W/m2 FEW
12:30 -2.6 °F /  -19.2 °C -3.6 °F /  -19.8 °C 1009.4in /  34178.3hPa Calm     93% 0.0in /  0mm WeatherDisplay:10.37 W/m2 FEW
12:40 -2.5 °F /  -19.2 °C -3.5 °F /  -19.7 °C 1009.4in /  34178.3hPa Calm     93% 0.0in /  0mm WeatherDisplay:10.37 W/m2 FEW
12:55 -2.4 °F /  -19.1 °C -3.4 °F /  -19.7 °C 1009.4in /  34178.3hPa Calm     93% 0.0in /  0mm WeatherDisplay:10.37 W/m2 FEW
13:00 -2.4 °F /  -19.1 °C -3.4 °F /  -19.7 °C 1009.4in /  34178.3hPa Calm     93% 0.0in /  0mm WeatherDisplay:10.37 W/m2 FEW
13:05 -2.4 °F /  -19.1 °C -3.4 °F /  -19.7 °C 1009.4in /  34178.3hPa Calm     93% 0.0in /  0mm WeatherDisplay:10.37 W/m2 FEW
13:10 -2.4 °F /  -19.1 °C -3.4 °F /  -19.7 °C 1009.4in /  34178.3hPa Calm   1.9mph /  3.1km/h 93% 0.0in /  0mm WeatherDisplay:10.37 W/m2 FEW
13:15 -2.4 °F /  -19.1 °C -3.4 °F /  -19.7 °C 1009.4in /  34178.3hPa West 0.5mph /  0.8km/h 3.7mph /  6km/h 93% 0.0in /  0mm WeatherDisplay:10.37 W/m2 FEW
13:20 -2.4 °F /  -19.1 °C -3.4 °F /  -19.7 °C 1009.4in /  34178.3hPa Calm   1.6mph /  2.6km/h 93% 0.0in /  0mm WeatherDisplay:10.37 W/m2 FEW
13:30 -2.4 °F /  -19.1 °C -3.4 °F /  -19.7 °C 1009.4in /  34178.3hPa Calm     93% 0.0in /  0mm WeatherDisplay:10.37 W/m2 FEW
13:35 -2.4 °F /  -19.1 °C -3.4 °F /  -19.7 °C 1009.4in /  34178.3hPa Calm     93% 0.0in /  0mm WeatherDisplay:10.37 W/m2 FEW
13:40 -2.4 °F /  -19.1 °C -3.4 °F /  -19.7 °C 1009.4in /  34178.3hPa Calm     93% 0.0in /  0mm WeatherDisplay:10.37 W/m2 FEW
13:45 -2.4 °F /  -19.1 °C -3.4 °F /  -19.7 °C 1009.4in /  34178.3hPa Calm     93% 0.0in /  0mm WeatherDisplay:10.37 W/m2 FEW
13:55 -2.4 °F /  -19.1 °C -3.4 °F /  -19.7 °C 1009.4in /  34178.3hPa Calm     93% 0.0in /  0mm WeatherDisplay:10.37 W/m2 FEW
14:00 -2.4 °F /  -19.1 °C -3.4 °F /  -19.7 °C 1009.4in /  34178.3hPa Calm     93% 0.0in /  0mm WeatherDisplay:10.37 W/m2 FEW
14:05 -2.4 °F /  -19.1 °C -3.4 °F /  -19.7 °C 1009.4in /  34178.3hPa Calm     93% 0.0in /  0mm WeatherDisplay:10.37 W/m2 FEW
14:10 -2.4 °F /  -19.1 °C -3.4 °F /  -19.7 °C 1009.4in /  34178.3hPa Calm     93% 0.0in /  0mm WeatherDisplay:10.37 W/m2 FEW
14:15 -2.4 °F /  -19.1 °C -3.4 °F /  -19.7 °C 1009.4in /  34178.3hPa Calm     93% 0.0in /  0mm WeatherDisplay:10.37 W/m2 FEW
14:20 -2.4 °F /  -19.1 °C -3.4 °F /  -19.7 °C 1009.7in /  34188.4hPa Calm     93% 0.0in /  0mm WeatherDisplay:10.37 W/m2 FEW
14:25 -2.4 °F /  -19.1 °C -3.4 °F /  -19.7 °C 1009.4in /  34178.3hPa Calm     93% 0.0in /  0mm WeatherDisplay:10.37 W/m2 FEW
14:30 -2.4 °F /  -19.1 °C -3.4 °F /  -19.7 °C 1009.4in /  34178.3hPa Calm     93% 0.0in /  0mm WeatherDisplay:10.37 W/m2 FEW
14:45 -2.4 °F /  -19.1 °C -3.4 °F /  -19.7 °C 1009.4in /  34178.3hPa Calm     93% 0.0in /  0mm WeatherDisplay:10.37 W/m2 FEW
14:50 -2.4 °F /  -19.1 °C -3.4 °F /  -19.7 °C 1009.7in /  34188.4hPa Calm     93% 0.0in /  0mm WeatherDisplay:10.37 W/m2 FEW
14:55 -2.4 °F /  -19.1 °C -3.4 °F /  -19.7 °C 1009.7in /  34188.4hPa Calm     93% 0.0in /  0mm WeatherDisplay:10.37 W/m2 FEW
15:05 -2.4 °F /  -19.1 °C -3.4 °F /  -19.7 °C 1009.7in /  34188.4hPa Calm     93% 0.0in /  0mm WeatherDisplay:10.37 W/m2 FEW
15:10 -2.4 °F /  -19.1 °C -3.4 °F /  -19.7 °C 1009.7in /  34188.4hPa Calm     93% 0.0in /  0mm WeatherDisplay:10.37 W/m2 FEW
15:15 -2.5 °F /  -19.2 °C -3.5 °F /  -19.7 °C 1009.7in /  34188.4hPa Calm     93% 0.0in /  0mm WeatherDisplay:10.37 W/m2 FEW
15:20 -2.5 °F /  -19.2 °C -3.5 °F /  -19.7 °C 1009.7in /  34188.4hPa Calm     93% 0.0in /  0mm WeatherDisplay:10.37 W/m2 FEW
15:25 -2.5 °F /  -19.2 °C -3.5 °F /  -19.7 °C 1009.7in /  34188.4hPa Calm     93% 0.0in /  0mm WeatherDisplay:10.37 W/m2 FEW
15:30 -2.5 °F /  -19.2 °C -3.5 °F /  -19.7 °C 1009.7in /  34188.4hPa Calm     93% 0.0in /  0mm WeatherDisplay:10.37 W/m2 FEW
15:35 -2.5 °F /  -19.2 °C -3.5 °F /  -19.7 °C 1009.7in /  34188.4hPa Calm     93% 0.0in /  0mm WeatherDisplay:10.37 W/m2 FEW
15:40 -2.5 °F /  -19.2 °C -3.5 °F /  -19.7 °C 1009.7in /  34188.4hPa Calm     93% 0.0in /  0mm WeatherDisplay:10.37 W/m2 FEW
15:45 -2.5 °F /  -19.2 °C -3.5 °F /  -19.7 °C 1009.7in /  34188.4hPa Calm     93% 0.0in /  0mm WeatherDisplay:10.37 W/m2 FEW
15:50 -2.5 °F /  -19.2 °C -3.5 °F /  -19.7 °C 1009.7in /  34188.4hPa Calm     93% 0.0in /  0mm WeatherDisplay:10.37 W/m2 FEW
16:00 -2.5 °F /  -19.2 °C -3.5 °F /  -19.7 °C 1009.7in /  34188.4hPa Calm     93% 0.0in /  0mm WeatherDisplay:10.37 W/m2 FEW
16:05 -2.5 °F /  -19.2 °C -3.5 °F /  -19.7 °C 1009.7in /  34188.4hPa Calm     93% 0.0in /  0mm WeatherDisplay:10.37 W/m2 FEW
16:10 -2.6 °F /  -19.2 °C -3.6 °F /  -19.8 °C 1010.0in /  34198.6hPa Calm     93% 0.0in /  0mm WeatherDisplay:10.37 W/m2 FEW
16:15 -2.7 °F /  -19.3 °C -3.7 °F /  -19.8 °C 1010.0in /  34198.6hPa ENE 4.0mph /  6.4km/h 5.6mph /  9km/h 93% 0.0in /  0mm WeatherDisplay:10.37 W/m2 FEW
16:20 -3.2 °F /  -19.6 °C -4.3 °F /  -20.2 °C 1010.0in /  34198.6hPa ENE 4.7mph /  7.6km/h 5.6mph /  9km/h 92% 0.0in /  0mm WeatherDisplay:10.37 W/m2 FEW
16:25 -3.7 °F /  -19.8 °C -4.9 °F /  -20.5 °C 1010.0in /  34198.6hPa ENE 2.7mph /  4.3km/h 5.6mph /  9km/h 91% 0.0in /  0mm WeatherDisplay:10.37 W/m2 FEW
16:35 -4.4 °F /  -20.2 °C -5.7 °F /  -20.9 °C 1010.0in /  34198.6hPa ENE 2.6mph /  4.2km/h 5.6mph /  9km/h 91% 0.0in /  0mm WeatherDisplay:10.37 W/m2 FEW
16:40 -4.8 °F /  -20.4 °C -6.0 °F /  -21.1 °C 1010.4in /  34212.1hPa Calm   1.9mph /  3.1km/h 91% 0.0in /  0mm WeatherDisplay:10.37 W/m2 FEW
16:50 -5.2 °F /  -20.7 °C -6.4 °F /  -21.3 °C 1010.4in /  34212.1hPa Calm     91% 0.3in /  7.62mm WeatherDisplay:10.37 W/m2 RA
16:55 -5.3 °F /  -20.7 °C -6.5 °F /  -21.4 °C 1010.4in /  34212.1hPa Calm     91% 0.3in /  7.62mm WeatherDisplay:10.37 W/m2 FEW
17:00 -5.5 °F /  -20.8 °C -6.7 °F /  -21.5 °C 1010.7in /  34222.3hPa NNE 0.8mph /  1.3km/h 3.7mph /  6km/h 91% 0.3in /  7.62mm WeatherDisplay:10.37 W/m2 FEW
17:05 -5.8 °F /  -21 °C -7.1 °F /  -21.7 °C 1010.7in /  34222.3hPa NNE 2.6mph /  4.2km/h 5.6mph /  9km/h 91% 0.3in /  7.62mm WeatherDisplay:10.37 W/m2 FEW
17:10 -6.1 °F /  -21.2 °C -7.4 °F /  -21.9 °C 1010.7in /  34222.3hPa Calm   7.4mph /  11.9km/h 90% 0.3in /  7.62mm WeatherDisplay:10.37 W/m2 FEW
17:15 -6.2 °F /  -21.2 °C -7.6 °F /  -22 °C 1010.7in /  34222.3hPa Calm     90% 0.3in /  7.62mm WeatherDisplay:10.37 W/m2 FEW
17:20 -6.3 °F /  -21.3 °C -7.5 °F /  -21.9 °C 1011.1in /  34235.8hPa NE 1.0mph /  1.6km/h 5.6mph /  9km/h 91% 0.3in /  7.62mm WeatherDisplay:10.37 W/m2 FEW
17:25 -6.3 °F /  -21.3 °C -7.6 °F /  -22 °C 1011.1in /  34235.8hPa Calm     91% 0.3in /  7.62mm WeatherDisplay:10.37 W/m2 FEW
17:30 -6.4 °F /  -21.3 °C -7.7 °F /  -22.1 °C 1011.1in /  34235.8hPa Calm     91% 0.3in /  7.62mm WeatherDisplay:10.37 W/m2 FEW
17:35 -6.6 °F /  -21.4 °C -7.8 °F /  -22.1 °C 1011.1in /  34235.8hPa Calm   3.7mph /  6km/h 91% 0.3in /  7.62mm WeatherDisplay:10.37 W/m2 FEW
17:40 -6.7 °F /  -21.5 °C -7.9 °F /  -22.2 °C 1011.1in /  34235.8hPa Calm     91% 0.3in /  7.62mm WeatherDisplay:10.37 W/m2 FEW
17:45 -6.7 °F /  -21.5 °C -7.9 °F /  -22.2 °C 1011.1in /  34235.8hPa Calm     91% 0.3in /  7.62mm WeatherDisplay:10.37 W/m2 RA
17:50 -6.7 °F /  -21.5 °C -7.9 °F /  -22.2 °C 1011.1in /  34235.8hPa NNE 0.3mph /  0.5km/h 3.2mph /  5.1km/h 91% 0.3in /  7.62mm WeatherDisplay:10.37 W/m2 RA
17:55 -6.7 °F /  -21.5 °C -7.9 °F /  -22.2 °C 1011.1in /  34235.8hPa Calm     91% 0.3in /  7.62mm WeatherDisplay:10.37 W/m2 FEW
18:00 -6.8 °F /  -21.6 °C -8.0 °F /  -22.2 °C 1011.4in /  34246hPa Calm     91% 0.3in /  7.62mm WeatherDisplay:10.37 W/m2 FEW
18:05 -6.8 °F /  -21.6 °C -8.1 °F /  -22.3 °C 1011.4in /  34246hPa Calm     91% 0.3in /  7.62mm WeatherDisplay:10.37 W/m2 FEW
18:10 -6.9 °F /  -21.6 °C -8.1 °F /  -22.3 °C 1011.4in /  34246hPa NE 0.6mph /  1km/h 1.6mph /  2.6km/h 91% 0.3in /  7.62mm WeatherDisplay:10.37 W/m2 FEW
18:15 -7.0 °F /  -21.7 °C -8.2 °F /  -22.3 °C 1011.4in /  34246hPa Calm     91% 0.3in /  7.62mm WeatherDisplay:10.37 W/m2 FEW
18:20 -7.2 °F /  -21.8 °C -8.6 °F /  -22.6 °C 1011.4in /  34246hPa Calm     90% 0.3in /  7.62mm WeatherDisplay:10.37 W/m2 FEW
18:25 -7.4 °F /  -21.9 °C -8.7 °F /  -22.6 °C 1011.7in /  34256.2hPa NE 0.2mph /  0.3km/h 3.7mph /  6km/h 90% 0.3in /  7.62mm WeatherDisplay:10.37 W/m2 FEW
18:30 -7.6 °F /  -22 °C -8.9 °F /  -22.7 °C 1011.7in /  34256.2hPa Calm     90% 0.3in /  7.62mm WeatherDisplay:10.37 W/m2 FEW
18:35 -7.7 °F /  -22.1 °C -9.0 °F /  -22.8 °C 1011.7in /  34256.2hPa NNE 1.1mph /  1.8km/h 5.6mph /  9km/h 90% 0.3in /  7.62mm WeatherDisplay:10.37 W/m2 FEW
18:40 -7.8 °F /  -22.1 °C -9.1 °F /  -22.8 °C 1011.7in /  34256.2hPa Calm     90% 0.3in /  7.62mm WeatherDisplay:10.37 W/m2 FEW
18:45 -7.8 °F /  -22.1 °C -9.2 °F /  -22.9 °C 1012.1in /  34269.7hPa Calm     90% 0.0in /  0mm WeatherDisplay:10.37 W/m2 FEW
18:50 -7.9 °F /  -22.2 °C -9.1 °F /  -22.8 °C 1012.1in /  34269.7hPa Calm     91% 0.0in /  0mm WeatherDisplay:10.37 W/m2 FEW
18:55 -7.9 °F /  -22.2 °C -9.3 °F /  -22.9 °C 1012.1in /  34269.7hPa Calm     90% 0.0in /  0mm WeatherDisplay:10.37 W/m2 FEW
19:00 -7.9 °F /  -22.2 °C -9.2 °F /  -22.9 °C 1012.1in /  34269.7hPa Calm     91% 0.0in /  0mm WeatherDisplay:10.37 W/m2 FEW
19:05 -7.9 °F /  -22.2 °C -9.2 °F /  -22.9 °C 1012.1in /  34269.7hPa NNE 0.2mph /  0.3km/h   91% 0.0in /  0mm WeatherDisplay:10.37 W/m2 FEW
19:10 -7.9 °F /  -22.2 °C -9.2 °F /  -22.9 °C 1012.1in /  34269.7hPa Calm     91% 0.0in /  0mm WeatherDisplay:10.37 W/m2 FEW
19:15 -8.0 °F /  -22.2 °C -9.2 °F /  -22.9 °C 1012.1in /  34269.7hPa Calm     91% 0.0in /  0mm WeatherDisplay:10.37 W/m2 FEW
19:20 -8.0 °F /  -22.2 °C -9.2 °F /  -22.9 °C 1012.4in /  34279.9hPa Calm     91% 0.0in /  0mm WeatherDisplay:10.37 W/m2 FEW
19:25 -7.9 °F /  -22.2 °C -9.2 °F /  -22.9 °C 1012.4in /  34279.9hPa Calm     91% 0.0in /  0mm WeatherDisplay:10.37 W/m2 FEW
19:30 -7.9 °F /  -22.2 °C -9.2 °F /  -22.9 °C 1012.4in /  34279.9hPa Calm     91% 0.0in /  0mm WeatherDisplay:10.37 W/m2 FEW
19:35 -8.0 °F /  -22.2 °C -9.2 °F /  -22.9 °C 1012.4in /  34279.9hPa Calm     91% 0.0in /  0mm WeatherDisplay:10.37 W/m2 FEW
19:40 -8.1 °F /  -22.3 °C -9.4 °F /  -23 °C 1012.4in /  34279.9hPa Calm   3.7mph /  6km/h 90% 0.0in /  0mm WeatherDisplay:10.37 W/m2 FEW
19:45 -8.2 °F /  -22.3 °C -9.5 °F /  -23.1 °C 1012.8in /  34293.4hPa Calm     90% 0.0in /  0mm WeatherDisplay:10.37 W/m2 FEW
19:50 -8.2 °F /  -22.3 °C -9.5 °F /  -23.1 °C 1012.8in /  34293.4hPa NNE 0.6mph /  1km/h 3.2mph /  5.1km/h 90% 0.0in /  0mm WeatherDisplay:10.37 W/m2 FEW
19:55 -8.3 °F /  -22.4 °C -9.6 °F /  -23.1 °C 1012.8in /  34293.4hPa Calm     90% 0.0in /  0mm WeatherDisplay:10.37 W/m2 FEW
20:00 -8.3 °F /  -22.4 °C -9.6 °F /  -23.1 °C 1012.8in /  34293.4hPa Calm     90% 0.0in /  0mm WeatherDisplay:10.37 W/m2 FEW
20:05 -8.3 °F /  -22.4 °C -9.6 °F /  -23.1 °C 1012.8in /  34293.4hPa Calm     90% 0.0in /  0mm WeatherDisplay:10.37 W/m2 FEW
20:10 -8.3 °F /  -22.4 °C -9.6 °F /  -23.1 °C 1012.8in /  34293.4hPa Calm     90% 0.0in /  0mm WeatherDisplay:10.37 W/m2 FEW
20:15 -8.3 °F /  -22.4 °C -9.6 °F /  -23.1 °C 1012.8in /  34293.4hPa NNE 1.1mph /  1.8km/h 5.6mph /  9km/h 90% 0.0in /  0mm WeatherDisplay:10.37 W/m2 FEW
20:20 -8.3 °F /  -22.4 °C -9.6 °F /  -23.1 °C 1012.8in /  34293.4hPa Calm     90% 0.0in /  0mm WeatherDisplay:10.37 W/m2 FEW
20:25 -8.3 °F /  -22.4 °C -9.6 °F /  -23.1 °C 1012.8in /  34293.4hPa Calm     90% 0.0in /  0mm WeatherDisplay:10.37 W/m2 FEW
20:30 -8.3 °F /  -22.4 °C -9.5 °F /  -23.1 °C 1012.8in /  34293.4hPa Calm   1.9mph /  3.1km/h 91% 0.0in /  0mm WeatherDisplay:10.37 W/m2 FEW
20:35 -8.3 °F /  -22.4 °C -9.6 °F /  -23.1 °C 1012.8in /  34293.4hPa Calm     91% 0.0in /  0mm WeatherDisplay:10.37 W/m2 FEW
20:40 -8.3 °F /  -22.4 °C -9.5 °F /  -23.1 °C 1012.8in /  34293.4hPa Calm     91% 0.0in /  0mm WeatherDisplay:10.37 W/m2 FEW
20:45 -8.3 °F /  -22.4 °C -9.6 °F /  -23.1 °C 1012.8in /  34293.4hPa NNE 1.8mph /  2.9km/h 5.6mph /  9km/h 91% 0.0in /  0mm WeatherDisplay:10.37 W/m2 FEW
20:50 -8.4 °F /  -22.4 °C -9.7 °F /  -23.2 °C 1013.1in /  34303.6hPa Calm     90% 0.0in /  0mm WeatherDisplay:10.37 W/m2 FEW
20:55 -8.4 °F /  -22.4 °C -9.7 °F /  -23.2 °C 1013.1in /  34303.6hPa Calm     91% 0.0in /  0mm WeatherDisplay:10.37 W/m2 FEW
21:00 -8.4 °F /  -22.4 °C -9.7 °F /  -23.2 °C 1013.1in /  34303.6hPa Calm     91% 0.0in /  0mm WeatherDisplay:10.37 W/m2 FEW
21:05 -8.4 °F /  -22.4 °C -9.7 °F /  -23.2 °C 1013.1in /  34303.6hPa Calm     91% 0.0in /  0mm WeatherDisplay:10.37 W/m2 FEW
21:10 -8.5 °F /  -22.5 °C -9.7 °F /  -23.2 °C 1013.1in /  34303.6hPa Calm     91% 0.0in /  0mm WeatherDisplay:10.37 W/m2 FEW
21:15 -8.5 °F /  -22.5 °C -9.7 °F /  -23.2 °C 1013.1in /  34303.6hPa Calm     91% 0.0in /  0mm WeatherDisplay:10.37 W/m2 FEW
21:20 -8.6 °F /  -22.6 °C -9.8 °F /  -23.2 °C 1013.1in /  34303.6hPa Calm     91% 0.0in /  0mm WeatherDisplay:10.37 W/m2 FEW
21:25 -8.6 °F /  -22.6 °C -9.9 °F /  -23.3 °C 1013.1in /  34303.6hPa Calm     90% 0.0in /  0mm WeatherDisplay:10.37 W/m2 FEW
21:30 -8.7 °F /  -22.6 °C -10.0 °F /  -23.3 °C 1013.1in /  34303.6hPa Calm     90% 0.0in /  0mm WeatherDisplay:10.37 W/m2 FEW
21:35 -8.7 °F /  -22.6 °C -10.1 °F /  -23.4 °C 1013.1in /  34303.6hPa Calm     90% 0.0in /  0mm WeatherDisplay:10.37 W/m2 FEW
21:40 -8.8 °F /  -22.7 °C -10.2 °F /  -23.4 °C 1013.1in /  34303.6hPa Calm     90% 0.0in /  0mm WeatherDisplay:10.37 W/m2 FEW
21:45 -8.9 °F /  -22.7 °C -10.3 °F /  -23.5 °C 1013.4in /  34313.7hPa Calm     90% 0.0in /  0mm WeatherDisplay:10.37 W/m2 FEW
21:50 -8.9 °F /  -22.7 °C -10.3 °F /  -23.5 °C 1013.4in /  34313.7hPa Calm     90% 0.0in /  0mm WeatherDisplay:10.37 W/m2 FEW
21:55 -9.0 °F /  -22.8 °C -10.3 °F /  -23.5 °C 1013.4in /  34313.7hPa Calm     90% 0.0in /  0mm WeatherDisplay:10.37 W/m2 FEW
22:00 -9.1 °F /  -22.8 °C -10.4 °F /  -23.6 °C 1013.4in /  34313.7hPa Calm     90% 0.0in /  0mm WeatherDisplay:10.37 W/m2 FEW
22:05 -9.1 °F /  -22.8 °C -10.3 °F /  -23.5 °C 1013.4in /  34313.7hPa Calm     91% 0.0in /  0mm WeatherDisplay:10.37 W/m2 FEW
22:10 -9.1 °F /  -22.8 °C -10.3 °F /  -23.5 °C 1013.4in /  34313.7hPa Calm     91% 0.0in /  0mm WeatherDisplay:10.37 W/m2 FEW
22:15 -9.1 °F /  -22.8 °C -10.3 °F /  -23.5 °C 1013.8in /  34327.3hPa Calm     91% 0.0in /  0mm WeatherDisplay:10.37 W/m2 FEW
22:20 -9.1 °F /  -22.8 °C -10.3 °F /  -23.5 °C 1013.8in /  34327.3hPa Calm     91% 0.0in /  0mm WeatherDisplay:10.37 W/m2 FEW
22:25 -9.1 °F /  -22.8 °C -10.3 °F /  -23.5 °C 1013.8in /  34327.3hPa Calm     91% 0.0in /  0mm WeatherDisplay:10.37 W/m2 FEW
22:30 -9.2 °F /  -22.9 °C -10.4 °F /  -23.6 °C 1013.8in /  34327.3hPa Calm     91% 0.0in /  0mm WeatherDisplay:10.37 W/m2 FEW
22:35 -9.2 °F /  -22.9 °C -10.4 °F /  -23.6 °C 1013.8in /  34327.3hPa Calm     91% 0.0in /  0mm WeatherDisplay:10.37 W/m2 FEW
22:40 -9.2 °F /  -22.9 °C -10.4 °F /  -23.6 °C 1014.1in /  34337.4hPa Calm     91% 0.0in /  0mm WeatherDisplay:10.37 W/m2 FEW
22:45 -9.3 °F /  -22.9 °C -10.5 °F /  -23.6 °C 1014.1in /  34337.4hPa Calm     91% 0.0in /  0mm WeatherDisplay:10.37 W/m2 FEW
22:50 -9.3 °F /  -22.9 °C -10.6 °F /  -23.7 °C 1014.1in /  34337.4hPa Calm     91% 0.0in /  0mm WeatherDisplay:10.37 W/m2 FEW
22:55 -9.4 °F /  -23 °C -10.8 °F /  -23.8 °C 1014.1in /  34337.4hPa Calm     90% 0.0in /  0mm WeatherDisplay:10.37 W/m2 FEW
23:00 -9.6 °F /  -23.1 °C -10.9 °F /  -23.8 °C 1014.1in /  34337.4hPa Calm     90% 0.0in /  0mm WeatherDisplay:10.37 W/m2 FEW
23:05 -9.8 °F /  -23.2 °C -11.1 °F /  -23.9 °C 1014.1in /  34337.4hPa Calm     90% 0.0in /  0mm WeatherDisplay:10.37 W/m2 FEW
23:10 -9.9 °F /  -23.3 °C -11.3 °F /  -24.1 °C 1014.1in /  34337.4hPa Calm     90% 0.0in /  0mm WeatherDisplay:10.37 W/m2 FEW
23:15 -10.1 °F /  -23.4 °C -11.4 °F /  -24.1 °C 1014.1in /  34337.4hPa Calm     90% 0.0in /  0mm WeatherDisplay:10.37 W/m2 FEW
23:20 -10.2 °F /  -23.4 °C -11.6 °F /  -24.2 °C 1014.1in /  34337.4hPa Calm     90% 0.0in /  0mm WeatherDisplay:10.37 W/m2 FEW
23:25 -10.3 °F /  -23.5 °C -11.7 °F /  -24.3 °C 1014.4in /  34347.6hPa Calm     90% 0.0in /  0mm WeatherDisplay:10.37 W/m2 FEW
23:30 -10.3 °F /  -23.5 °C -11.7 °F /  -24.3 °C 1014.4in /  34347.6hPa Calm     90% 0.0in /  0mm WeatherDisplay:10.37 W/m2 FEW
23:35 -10.3 °F /  -23.5 °C -11.7 °F /  -24.3 °C 1014.4in /  34347.6hPa Calm     90% 0.0in /  0mm WeatherDisplay:10.37 W/m2 FEW
23:40 -10.3 °F /  -23.5 °C -11.7 °F /  -24.3 °C 1014.4in /  34347.6hPa Calm     90% 0.0in /  0mm WeatherDisplay:10.37 W/m2 FEW
23:45 -10.3 °F /  -23.5 °C -11.5 °F /  -24.2 °C 1014.4in /  34347.6hPa Calm     91% 0.0in /  0mm WeatherDisplay:10.37 W/m2 FEW
23:50 -10.3 °F /  -23.5 °C -11.4 °F /  -24.1 °C 1014.8in /  34361.1hPa Calm     91% 0.0in /  0mm WeatherDisplay:10.37 W/m2 FEW
23:55 -10.2 °F /  -23.4 °C -11.3 °F /  -24.1 °C 1014.8in /  34361.1hPa Calm     91% 0.0in /  0mm WeatherDisplay:10.37 W/m2 FEW
Tuulensuunkaari, Veikkola, Suomi
Compliments of Weather Underground - 2.5 mb